sensor_id;sensor_type;location;lat;lon;timestamp;temperature;humidity
33673;DHT22;20011;51.510;9.942;2023-06-04T00:02:11;12.90;87.50
33673;DHT22;20011;51.510;9.942;2023-06-04T00:04:38;12.80;87.90
33673;DHT22;20011;51.510;9.942;2023-06-04T00:07:05;12.80;87.80
33673;DHT22;20011;51.510;9.942;2023-06-04T00:09:32;12.70;88.10
33673;DHT22;20011;51.510;9.942;2023-06-04T00:12:00;12.70;88.10
33673;DHT22;20011;51.510;9.942;2023-06-04T00:14:27;12.70;88.80
33673;DHT22;20011;51.510;9.942;2023-06-04T00:16:54;12.70;89.90
33673;DHT22;20011;51.510;9.942;2023-06-04T00:19:21;12.60;89.80
33673;DHT22;20011;51.510;9.942;2023-06-04T00:21:48;12.60;89.50
33673;DHT22;20011;51.510;9.942;2023-06-04T00:24:16;12.60;90.00
33673;DHT22;20011;51.510;9.942;2023-06-04T00:26:44;12.50;90.10
33673;DHT22;20011;51.510;9.942;2023-06-04T00:29:11;12.50;90.20
33673;DHT22;20011;51.510;9.942;2023-06-04T00:31:38;12.50;90.30
33673;DHT22;20011;51.510;9.942;2023-06-04T00:34:05;12.50;90.20
33673;DHT22;20011;51.510;9.942;2023-06-04T00:36:32;12.50;90.10
33673;DHT22;20011;51.510;9.942;2023-06-04T00:38:59;12.50;90.20
33673;DHT22;20011;51.510;9.942;2023-06-04T00:41:26;12.50;90.00
33673;DHT22;20011;51.510;9.942;2023-06-04T00:43:53;12.50;90.10
33673;DHT22;20011;51.510;9.942;2023-06-04T00:46:25;12.50;90.40
33673;DHT22;20011;51.510;9.942;2023-06-04T00:48:53;12.40;90.40
33673;DHT22;20011;51.510;9.942;2023-06-04T00:51:20;12.40;90.50
33673;DHT22;20011;51.510;9.942;2023-06-04T00:53:49;12.30;90.30
33673;DHT22;20011;51.510;9.942;2023-06-04T00:56:16;12.30;90.30
33673;DHT22;20011;51.510;9.942;2023-06-04T00:58:44;12.30;90.30
33673;DHT22;20011;51.510;9.942;2023-06-04T01:03:49;12.20;90.20
33673;DHT22;20011;51.510;9.942;2023-06-04T01:06:38;12.20;90.20
33673;DHT22;20011;51.510;9.942;2023-06-04T01:09:05;12.00;90.10
33673;DHT22;20011;51.510;9.942;2023-06-04T01:11:37;12.00;90.30
33673;DHT22;20011;51.510;9.942;2023-06-04T01:14:06;11.90;90.50
33673;DHT22;20011;51.510;9.942;2023-06-04T01:16:58;11.90;90.60
33673;DHT22;20011;51.510;9.942;2023-06-04T01:22:38;11.80;91.00
33673;DHT22;20011;51.510;9.942;2023-06-04T01:25:14;11.80;91.20
33673;DHT22;20011;51.510;9.942;2023-06-04T01:27:55;11.80;91.30
33673;DHT22;20011;51.510;9.942;2023-06-04T01:30:32;11.80;91.20
33673;DHT22;20011;51.510;9.942;2023-06-04T01:33:00;11.80;91.10
33673;DHT22;20011;51.510;9.942;2023-06-04T01:35:29;11.80;91.20
33673;DHT22;20011;51.510;9.942;2023-06-04T01:37:57;11.80;91.40
33673;DHT22;20011;51.510;9.942;2023-06-04T01:40:24;11.80;91.40
33673;DHT22;20011;51.510;9.942;2023-06-04T01:42:53;11.80;91.70
33673;DHT22;20011;51.510;9.942;2023-06-04T01:45:26;11.80;91.80
33673;DHT22;20011;51.510;9.942;2023-06-04T01:47:53;11.70;91.50
33673;DHT22;20011;51.510;9.942;2023-06-04T01:50:21;11.70;91.70
33673;DHT22;20011;51.510;9.942;2023-06-04T01:52:48;11.70;91.80
33673;DHT22;20011;51.510;9.942;2023-06-04T01:55:16;11.70;91.70
33673;DHT22;20011;51.510;9.942;2023-06-04T01:57:45;11.70;91.90
33673;DHT22;20011;51.510;9.942;2023-06-04T02:00:12;11.60;92.00
33673;DHT22;20011;51.510;9.942;2023-06-04T02:02:42;11.60;92.20
33673;DHT22;20011;51.510;9.942;2023-06-04T02:05:10;11.60;92.40
33673;DHT22;20011;51.510;9.942;2023-06-04T02:07:39;11.60;92.40
33673;DHT22;20011;51.510;9.942;2023-06-04T02:10:14;11.60;92.50
33673;DHT22;20011;51.510;9.942;2023-06-04T02:12:53;11.50;92.20
33673;DHT22;20011;51.510;9.942;2023-06-04T02:15:20;11.50;92.40
33673;DHT22;20011;51.510;9.942;2023-06-04T02:17:47;11.50;92.20
33673;DHT22;20011;51.510;9.942;2023-06-04T02:20:14;11.40;92.40
33673;DHT22;20011;51.510;9.942;2023-06-04T02:22:41;11.40;92.00
33673;DHT22;20011;51.510;9.942;2023-06-04T02:25:09;11.40;91.90
33673;DHT22;20011;51.510;9.942;2023-06-04T02:27:36;11.40;91.80
33673;DHT22;20011;51.510;9.942;2023-06-04T02:30:04;11.30;91.60
33673;DHT22;20011;51.510;9.942;2023-06-04T02:32:32;11.30;91.70
33673;DHT22;20011;51.510;9.942;2023-06-04T02:35:00;11.30;91.70
33673;DHT22;20011;51.510;9.942;2023-06-04T02:37:27;11.30;91.60
33673;DHT22;20011;51.510;9.942;2023-06-04T02:39:54;11.20;91.60
33673;DHT22;20011;51.510;9.942;2023-06-04T02:42:21;11.20;92.10
33673;DHT22;20011;51.510;9.942;2023-06-04T02:44:48;11.20;92.10
33673;DHT22;20011;51.510;9.942;2023-06-04T02:47:15;11.20;92.00
33673;DHT22;20011;51.510;9.942;2023-06-04T02:49:42;11.20;92.10
33673;DHT22;20011;51.510;9.942;2023-06-04T02:52:08;11.10;92.20
33673;DHT22;20011;51.510;9.942;2023-06-04T02:54:35;11.10;92.20
33673;DHT22;20011;51.510;9.942;2023-06-04T02:57:03;11.00;92.70
33673;DHT22;20011;51.510;9.942;2023-06-04T02:59:31;11.00;93.10
33673;DHT22;20011;51.510;9.942;2023-06-04T03:01:59;10.90;93.10
33673;DHT22;20011;51.510;9.942;2023-06-04T03:04:26;10.90;93.30
33673;DHT22;20011;51.510;9.942;2023-06-04T03:07:02;10.80;93.30
33673;DHT22;20011;51.510;9.942;2023-06-04T03:09:30;10.80;93.50
33673;DHT22;20011;51.510;9.942;2023-06-04T03:11:59;10.80;93.30
33673;DHT22;20011;51.510;9.942;2023-06-04T03:14:28;10.90;93.20
33673;DHT22;20011;51.510;9.942;2023-06-04T03:17:00;10.90;92.90
33673;DHT22;20011;51.510;9.942;2023-06-04T03:19:35;10.90;92.90
33673;DHT22;20011;51.510;9.942;2023-06-04T03:22:03;10.90;93.00
33673;DHT22;20011;51.510;9.942;2023-06-04T03:24:39;10.90;93.00
33673;DHT22;20011;51.510;9.942;2023-06-04T03:27:08;10.80;93.20
33673;DHT22;20011;51.510;9.942;2023-06-04T03:29:36;10.70;93.40
33673;DHT22;20011;51.510;9.942;2023-06-04T03:32:06;10.70;92.90
33673;DHT22;20011;51.510;9.942;2023-06-04T03:34:33;10.70;92.70
33673;DHT22;20011;51.510;9.942;2023-06-04T03:37:01;10.70;92.80
33673;DHT22;20011;51.510;9.942;2023-06-04T03:39:29;10.60;92.70
33673;DHT22;20011;51.510;9.942;2023-06-04T03:41:58;10.60;92.90
33673;DHT22;20011;51.510;9.942;2023-06-04T03:44:26;10.60;92.90
33673;DHT22;20011;51.510;9.942;2023-06-04T03:46:53;10.60;93.20
33673;DHT22;20011;51.510;9.942;2023-06-04T03:49:20;10.60;93.20
33673;DHT22;20011;51.510;9.942;2023-06-04T03:51:49;10.60;93.00
33673;DHT22;20011;51.510;9.942;2023-06-04T03:54:17;10.60;93.20
33673;DHT22;20011;51.510;9.942;2023-06-04T03:56:46;10.60;93.40
33673;DHT22;20011;51.510;9.942;2023-06-04T03:59:13;10.70;93.60
33673;DHT22;20011;51.510;9.942;2023-06-04T04:01:42;10.70;93.40
33673;DHT22;20011;51.510;9.942;2023-06-04T04:04:10;10.80;93.40
33673;DHT22;20011;51.510;9.942;2023-06-04T04:06:37;10.90;93.30
33673;DHT22;20011;51.510;9.942;2023-06-04T04:09:04;10.90;93.30
33673;DHT22;20011;51.510;9.942;2023-06-04T04:11:34;11.00;93.40
33673;DHT22;20011;51.510;9.942;2023-06-04T04:14:02;11.00;93.10
33673;DHT22;20011;51.510;9.942;2023-06-04T04:16:29;11.00;93.00
33673;DHT22;20011;51.510;9.942;2023-06-04T04:18:57;11.10;93.00
33673;DHT22;20011;51.510;9.942;2023-06-04T04:21:24;11.10;93.10
33673;DHT22;20011;51.510;9.942;2023-06-04T04:23:52;11.10;92.80
33673;DHT22;20011;51.510;9.942;2023-06-04T04:26:20;11.20;93.00
33673;DHT22;20011;51.510;9.942;2023-06-04T04:28:51;11.20;93.00
33673;DHT22;20011;51.510;9.942;2023-06-04T04:31:20;11.20;92.90
33673;DHT22;20011;51.510;9.942;2023-06-04T04:33:50;11.30;92.80
33673;DHT22;20011;51.510;9.942;2023-06-04T04:36:19;11.40;92.70
33673;DHT22;20011;51.510;9.942;2023-06-04T04:38:50;11.40;92.80
33673;DHT22;20011;51.510;9.942;2023-06-04T04:41:24;11.50;92.50
33673;DHT22;20011;51.510;9.942;2023-06-04T04:43:54;11.50;92.80
33673;DHT22;20011;51.510;9.942;2023-06-04T04:46:29;11.60;92.80
33673;DHT22;20011;51.510;9.942;2023-06-04T04:48:56;11.60;92.60
33673;DHT22;20011;51.510;9.942;2023-06-04T04:51:23;11.70;92.90
33673;DHT22;20011;51.510;9.942;2023-06-04T04:53:51;11.70;92.60
33673;DHT22;20011;51.510;9.942;2023-06-04T04:56:18;11.80;92.30
33673;DHT22;20011;51.510;9.942;2023-06-04T04:58:48;11.80;92.20
33673;DHT22;20011;51.510;9.942;2023-06-04T05:01:16;11.80;92.20
33673;DHT22;20011;51.510;9.942;2023-06-04T05:03:44;11.80;92.40
33673;DHT22;20011;51.510;9.942;2023-06-04T05:06:14;11.90;92.60
33673;DHT22;20011;51.510;9.942;2023-06-04T05:08:41;11.90;92.50
33673;DHT22;20011;51.510;9.942;2023-06-04T05:11:09;11.90;92.50
33673;DHT22;20011;51.510;9.942;2023-06-04T05:13:37;12.00;92.50
33673;DHT22;20011;51.510;9.942;2023-06-04T05:16:05;12.00;92.40
33673;DHT22;20011;51.510;9.942;2023-06-04T05:18:39;12.10;92.30
33673;DHT22;20011;51.510;9.942;2023-06-04T05:21:16;12.10;92.50
33673;DHT22;20011;51.510;9.942;2023-06-04T05:23:49;12.10;92.60
33673;DHT22;20011;51.510;9.942;2023-06-04T05:26:19;12.20;92.40
33673;DHT22;20011;51.510;9.942;2023-06-04T05:28:50;12.20;92.10
33673;DHT22;20011;51.510;9.942;2023-06-04T05:31:17;12.20;92.20
33673;DHT22;20011;51.510;9.942;2023-06-04T05:33:45;12.30;92.50
33673;DHT22;20011;51.510;9.942;2023-06-04T05:36:17;12.30;92.80
33673;DHT22;20011;51.510;9.942;2023-06-04T05:38:50;12.30;92.90
33673;DHT22;20011;51.510;9.942;2023-06-04T05:41:28;12.40;93.60
33673;DHT22;20011;51.510;9.942;2023-06-04T05:43:56;12.40;93.60
33673;DHT22;20011;51.510;9.942;2023-06-04T05:46:23;12.40;93.80
33673;DHT22;20011;51.510;9.942;2023-06-04T05:48:51;12.40;94.00
33673;DHT22;20011;51.510;9.942;2023-06-04T05:51:19;12.50;93.80
33673;DHT22;20011;51.510;9.942;2023-06-04T05:53:47;12.50;93.80
33673;DHT22;20011;51.510;9.942;2023-06-04T05:56:15;12.50;93.70
33673;DHT22;20011;51.510;9.942;2023-06-04T05:58:43;12.50;93.60
33673;DHT22;20011;51.510;9.942;2023-06-04T06:01:11;12.60;93.60
33673;DHT22;20011;51.510;9.942;2023-06-04T06:03:38;12.60;93.80
33673;DHT22;20011;51.510;9.942;2023-06-04T06:06:05;12.60;93.90
33673;DHT22;20011;51.510;9.942;2023-06-04T06:08:33;12.70;93.70
33673;DHT22;20011;51.510;9.942;2023-06-04T06:11:00;12.70;93.80
33673;DHT22;20011;51.510;9.942;2023-06-04T06:13:27;12.70;93.30
33673;DHT22;20011;51.510;9.942;2023-06-04T06:15:55;12.70;93.70
33673;DHT22;20011;51.510;9.942;2023-06-04T06:18:23;12.70;93.90
33673;DHT22;20011;51.510;9.942;2023-06-04T06:20:50;12.70;94.70
33673;DHT22;20011;51.510;9.942;2023-06-04T06:23:17;12.80;94.30
33673;DHT22;20011;51.510;9.942;2023-06-04T06:25:46;12.80;93.90
33673;DHT22;20011;51.510;9.942;2023-06-04T06:28:18;12.90;93.60
33673;DHT22;20011;51.510;9.942;2023-06-04T06:30:46;12.90;93.40
33673;DHT22;20011;51.510;9.942;2023-06-04T06:33:14;13.00;93.30
33673;DHT22;20011;51.510;9.942;2023-06-04T06:35:41;13.00;93.60
33673;DHT22;20011;51.510;9.942;2023-06-04T06:38:08;13.00;92.80
33673;DHT22;20011;51.510;9.942;2023-06-04T06:40:35;13.10;92.20
33673;DHT22;20011;51.510;9.942;2023-06-04T06:43:02;13.10;91.80
33673;DHT22;20011;51.510;9.942;2023-06-04T06:45:29;13.10;92.30
33673;DHT22;20011;51.510;9.942;2023-06-04T06:47:56;13.20;92.40
33673;DHT22;20011;51.510;9.942;2023-06-04T06:50:23;13.20;91.90
33673;DHT22;20011;51.510;9.942;2023-06-04T06:52:50;13.20;91.70
33673;DHT22;20011;51.510;9.942;2023-06-04T06:55:17;13.30;91.70
33673;DHT22;20011;51.510;9.942;2023-06-04T06:57:44;13.30;92.00
33673;DHT22;20011;51.510;9.942;2023-06-04T07:00:12;13.40;92.40
33673;DHT22;20011;51.510;9.942;2023-06-04T07:02:39;13.40;92.40
33673;DHT22;20011;51.510;9.942;2023-06-04T07:05:06;13.50;92.20
33673;DHT22;20011;51.510;9.942;2023-06-04T07:07:33;13.50;92.50
33673;DHT22;20011;51.510;9.942;2023-06-04T07:10:01;13.60;92.90
33673;DHT22;20011;51.510;9.942;2023-06-04T07:12:28;13.60;92.70
33673;DHT22;20011;51.510;9.942;2023-06-04T07:14:55;13.60;92.80
33673;DHT22;20011;51.510;9.942;2023-06-04T07:17:22;13.70;92.70
33673;DHT22;20011;51.510;9.942;2023-06-04T07:19:49;13.70;92.60
33673;DHT22;20011;51.510;9.942;2023-06-04T07:22:16;13.70;92.70
33673;DHT22;20011;51.510;9.942;2023-06-04T07:24:43;13.80;92.90
33673;DHT22;20011;51.510;9.942;2023-06-04T07:27:14;13.80;93.00
33673;DHT22;20011;51.510;9.942;2023-06-04T07:29:43;13.80;92.80
33673;DHT22;20011;51.510;9.942;2023-06-04T07:32:11;13.90;92.80
33673;DHT22;20011;51.510;9.942;2023-06-04T07:34:39;13.90;92.60
33673;DHT22;20011;51.510;9.942;2023-06-04T07:37:06;13.90;92.90
33673;DHT22;20011;51.510;9.942;2023-06-04T07:39:36;13.90;93.00
33673;DHT22;20011;51.510;9.942;2023-06-04T07:42:04;14.00;92.90
33673;DHT22;20011;51.510;9.942;2023-06-04T07:44:32;14.00;92.60
33673;DHT22;20011;51.510;9.942;2023-06-04T07:46:59;14.10;91.80
33673;DHT22;20011;51.510;9.942;2023-06-04T07:49:26;14.00;91.40
33673;DHT22;20011;51.510;9.942;2023-06-04T07:51:53;14.00;91.30
33673;DHT22;20011;51.510;9.942;2023-06-04T07:54:21;14.10;91.30
33673;DHT22;20011;51.510;9.942;2023-06-04T07:56:48;14.10;91.20
33673;DHT22;20011;51.510;9.942;2023-06-04T07:59:15;14.10;91.00
33673;DHT22;20011;51.510;9.942;2023-06-04T08:01:42;14.20;91.00
33673;DHT22;20011;51.510;9.942;2023-06-04T08:04:09;14.20;90.50
33673;DHT22;20011;51.510;9.942;2023-06-04T08:06:36;14.20;89.80
33673;DHT22;20011;51.510;9.942;2023-06-04T08:09:06;14.30;87.60
33673;DHT22;20011;51.510;9.942;2023-06-04T08:11:54;14.30;86.70
33673;DHT22;20011;51.510;9.942;2023-06-04T08:14:21;14.40;86.20
33673;DHT22;20011;51.510;9.942;2023-06-04T08:16:50;14.40;85.60
33673;DHT22;20011;51.510;9.942;2023-06-04T08:19:17;14.40;84.20
33673;DHT22;20011;51.510;9.942;2023-06-04T08:21:44;14.50;83.10
33673;DHT22;20011;51.510;9.942;2023-06-04T08:24:12;14.50;82.60
33673;DHT22;20011;51.510;9.942;2023-06-04T08:26:39;14.50;83.00
33673;DHT22;20011;51.510;9.942;2023-06-04T08:29:06;14.60;82.90
33673;DHT22;20011;51.510;9.942;2023-06-04T08:31:33;14.60;83.30
33673;DHT22;20011;51.510;9.942;2023-06-04T08:34:00;14.60;83.90
33673;DHT22;20011;51.510;9.942;2023-06-04T08:36:27;14.60;84.20
33673;DHT22;20011;51.510;9.942;2023-06-04T08:38:54;14.60;84.20
33673;DHT22;20011;51.510;9.942;2023-06-04T08:41:43;14.70;83.80
33673;DHT22;20011;51.510;9.942;2023-06-04T08:44:11;14.70;83.60
33673;DHT22;20011;51.510;9.942;2023-06-04T08:46:39;14.70;82.60
33673;DHT22;20011;51.510;9.942;2023-06-04T08:49:07;14.80;82.20
33673;DHT22;20011;51.510;9.942;2023-06-04T08:51:36;14.80;82.30
33673;DHT22;20011;51.510;9.942;2023-06-04T08:54:07;14.80;83.20
33673;DHT22;20011;51.510;9.942;2023-06-04T08:56:35;14.80;79.60
33673;DHT22;20011;51.510;9.942;2023-06-04T08:59:05;14.90;77.10
33673;DHT22;20011;51.510;9.942;2023-06-04T09:01:35;15.00;79.20
33673;DHT22;20011;51.510;9.942;2023-06-04T09:04:05;15.00;76.90
33673;DHT22;20011;51.510;9.942;2023-06-04T09:06:36;15.10;75.30
33673;DHT22;20011;51.510;9.942;2023-06-04T09:09:05;15.10;74.20
33673;DHT22;20011;51.510;9.942;2023-06-04T09:11:40;15.10;73.90
33673;DHT22;20011;51.510;9.942;2023-06-04T09:14:09;15.10;73.60
33673;DHT22;20011;51.510;9.942;2023-06-04T09:16:48;15.20;72.10
33673;DHT22;20011;51.510;9.942;2023-06-04T09:19:17;15.20;70.90
33673;DHT22;20011;51.510;9.942;2023-06-04T09:21:50;15.20;71.30
33673;DHT22;20011;51.510;9.942;2023-06-04T09:24:22;15.30;73.20
33673;DHT22;20011;51.510;9.942;2023-06-04T09:26:50;15.30;74.10
33673;DHT22;20011;51.510;9.942;2023-06-04T09:29:18;15.40;74.30
33673;DHT22;20011;51.510;9.942;2023-06-04T09:31:46;15.40;75.90
33673;DHT22;20011;51.510;9.942;2023-06-04T09:34:14;15.40;75.30
33673;DHT22;20011;51.510;9.942;2023-06-04T09:36:41;15.40;73.30
33673;DHT22;20011;51.510;9.942;2023-06-04T09:39:16;15.40;73.10
33673;DHT22;20011;51.510;9.942;2023-06-04T09:41:43;15.40;74.30
33673;DHT22;20011;51.510;9.942;2023-06-04T09:44:10;15.40;75.00
33673;DHT22;20011;51.510;9.942;2023-06-04T09:46:38;15.40;74.50
33673;DHT22;20011;51.510;9.942;2023-06-04T09:49:06;15.40;73.80
33673;DHT22;20011;51.510;9.942;2023-06-04T09:51:33;15.40;73.10
33673;DHT22;20011;51.510;9.942;2023-06-04T09:54:02;15.40;72.50
33673;DHT22;20011;51.510;9.942;2023-06-04T09:56:38;15.40;72.10
33673;DHT22;20011;51.510;9.942;2023-06-04T09:59:06;15.40;75.20
33673;DHT22;20011;51.510;9.942;2023-06-04T10:01:38;15.50;76.10
33673;DHT22;20011;51.510;9.942;2023-06-04T10:04:07;15.50;75.50
33673;DHT22;20011;51.510;9.942;2023-06-04T10:06:36;15.50;75.00
33673;DHT22;20011;51.510;9.942;2023-06-04T10:09:05;15.50;75.20
33673;DHT22;20011;51.510;9.942;2023-06-04T10:11:35;15.50;74.70
33673;DHT22;20011;51.510;9.942;2023-06-04T10:14:10;15.50;74.90
33673;DHT22;20011;51.510;9.942;2023-06-04T10:16:38;15.60;75.40
33673;DHT22;20011;51.510;9.942;2023-06-04T10:19:07;15.60;76.00
33673;DHT22;20011;51.510;9.942;2023-06-04T10:21:34;15.60;75.90
33673;DHT22;20011;51.510;9.942;2023-06-04T10:24:03;15.70;75.10
33673;DHT22;20011;51.510;9.942;2023-06-04T10:26:33;15.70;76.90
33673;DHT22;20011;51.510;9.942;2023-06-04T10:29:01;15.70;76.70
33673;DHT22;20011;51.510;9.942;2023-06-04T10:31:29;15.80;75.30
33673;DHT22;20011;51.510;9.942;2023-06-04T10:33:57;15.70;73.60
33673;DHT22;20011;51.510;9.942;2023-06-04T10:36:24;15.80;71.20
33673;DHT22;20011;51.510;9.942;2023-06-04T10:38:53;15.90;66.90
33673;DHT22;20011;51.510;9.942;2023-06-04T10:41:22;16.00;66.50
33673;DHT22;20011;51.510;9.942;2023-06-04T10:43:51;16.10;65.20
33673;DHT22;20011;51.510;9.942;2023-06-04T10:46:19;16.10;66.60
33673;DHT22;20011;51.510;9.942;2023-06-04T10:48:50;16.10;70.10
33673;DHT22;20011;51.510;9.942;2023-06-04T10:51:32;16.10;70.10
33673;DHT22;20011;51.510;9.942;2023-06-04T10:54:01;16.00;69.50
33673;DHT22;20011;51.510;9.942;2023-06-04T10:56:29;16.00;69.20
33673;DHT22;20011;51.510;9.942;2023-06-04T10:58:59;16.00;69.90
33673;DHT22;20011;51.510;9.942;2023-06-04T11:01:28;16.00;72.40
33673;DHT22;20011;51.510;9.942;2023-06-04T11:03:55;16.00;76.00
33673;DHT22;20011;51.510;9.942;2023-06-04T11:06:23;16.00;75.60
33673;DHT22;20011;51.510;9.942;2023-06-04T11:09:05;16.00;75.10
33673;DHT22;20011;51.510;9.942;2023-06-04T11:11:33;16.00;73.60
33673;DHT22;20011;51.510;9.942;2023-06-04T11:14:12;16.00;72.60
33673;DHT22;20011;51.510;9.942;2023-06-04T11:16:44;16.00;70.70
33673;DHT22;20011;51.510;9.942;2023-06-04T11:19:11;16.00;74.40
33673;DHT22;20011;51.510;9.942;2023-06-04T11:21:38;16.10;79.00
33673;DHT22;20011;51.510;9.942;2023-06-04T11:24:05;16.20;71.10
33673;DHT22;20011;51.510;9.942;2023-06-04T11:26:34;16.20;76.20
33673;DHT22;20011;51.510;9.942;2023-06-04T11:29:11;16.30;78.50
33673;DHT22;20011;51.510;9.942;2023-06-04T11:31:45;16.30;76.80
33673;DHT22;20011;51.510;9.942;2023-06-04T11:34:29;16.30;73.50
33673;DHT22;20011;51.510;9.942;2023-06-04T11:36:56;16.20;73.50
33673;DHT22;20011;51.510;9.942;2023-06-04T11:39:35;16.30;78.80
33673;DHT22;20011;51.510;9.942;2023-06-04T11:42:05;16.40;70.70
33673;DHT22;20011;51.510;9.942;2023-06-04T11:44:32;16.50;79.30
33673;DHT22;20011;51.510;9.942;2023-06-04T11:46:59;16.50;78.40
33673;DHT22;20011;51.510;9.942;2023-06-04T11:49:27;16.40;73.10
33673;DHT22;20011;51.510;9.942;2023-06-04T11:51:55;16.40;76.60
33673;DHT22;20011;51.510;9.942;2023-06-04T11:54:34;16.40;75.30
33673;DHT22;20011;51.510;9.942;2023-06-04T11:57:05;16.40;74.00
33673;DHT22;20011;51.510;9.942;2023-06-04T11:59:32;16.30;73.00
33673;DHT22;20011;51.510;9.942;2023-06-04T12:01:59;16.30;72.40
33673;DHT22;20011;51.510;9.942;2023-06-04T12:04:29;16.30;73.10
33673;DHT22;20011;51.510;9.942;2023-06-04T12:06:58;16.30;73.20
33673;DHT22;20011;51.510;9.942;2023-06-04T12:09:29;16.30;74.90
33673;DHT22;20011;51.510;9.942;2023-06-04T12:12:02;16.20;74.70
33673;DHT22;20011;51.510;9.942;2023-06-04T12:14:30;16.20;74.30
33673;DHT22;20011;51.510;9.942;2023-06-04T12:17:01;16.20;74.30
33673;DHT22;20011;51.510;9.942;2023-06-04T12:19:29;16.20;73.80
33673;DHT22;20011;51.510;9.942;2023-06-04T12:22:01;16.20;74.70
33673;DHT22;20011;51.510;9.942;2023-06-04T12:24:28;16.20;75.40
33673;DHT22;20011;51.510;9.942;2023-06-04T12:27:07;16.20;75.20
33673;DHT22;20011;51.510;9.942;2023-06-04T12:29:35;16.20;74.80
33673;DHT22;20011;51.510;9.942;2023-06-04T12:32:06;16.30;77.40
33673;DHT22;20011;51.510;9.942;2023-06-04T12:34:42;16.30;78.40
33673;DHT22;20011;51.510;9.942;2023-06-04T12:37:09;16.30;78.10
33673;DHT22;20011;51.510;9.942;2023-06-04T12:39:36;16.30;74.60
33673;DHT22;20011;51.510;9.942;2023-06-04T12:42:06;16.30;71.90
33673;DHT22;20011;51.510;9.942;2023-06-04T12:44:35;16.40;72.60
33673;DHT22;20011;51.510;9.942;2023-06-04T12:47:03;16.40;72.20
33673;DHT22;20011;51.510;9.942;2023-06-04T12:49:31;16.40;72.20
33673;DHT22;20011;51.510;9.942;2023-06-04T12:51:58;16.40;72.10
33673;DHT22;20011;51.510;9.942;2023-06-04T12:54:25;16.40;70.30
33673;DHT22;20011;51.510;9.942;2023-06-04T12:56:55;16.40;69.70
33673;DHT22;20011;51.510;9.942;2023-06-04T12:59:25;16.40;67.40
33673;DHT22;20011;51.510;9.942;2023-06-04T13:01:53;16.60;65.30
33673;DHT22;20011;51.510;9.942;2023-06-04T13:04:20;16.60;76.00
33673;DHT22;20011;51.510;9.942;2023-06-04T13:06:47;16.70;81.40
33673;DHT22;20011;51.510;9.942;2023-06-04T13:09:14;16.80;81.30
33673;DHT22;20011;51.510;9.942;2023-06-04T13:11:42;16.70;78.90
33673;DHT22;20011;51.510;9.942;2023-06-04T13:14:10;16.60;76.30
33673;DHT22;20011;51.510;9.942;2023-06-04T13:16:38;16.80;68.00
33673;DHT22;20011;51.510;9.942;2023-06-04T13:19:06;16.80;68.70
33673;DHT22;20011;51.510;9.942;2023-06-04T13:21:34;16.80;80.50
33673;DHT22;20011;51.510;9.942;2023-06-04T13:24:02;16.80;77.80
33673;DHT22;20011;51.510;9.942;2023-06-04T13:26:29;16.70;75.20
33673;DHT22;20011;51.510;9.942;2023-06-04T13:28:56;16.70;72.00
33673;DHT22;20011;51.510;9.942;2023-06-04T13:31:23;16.70;70.00
33673;DHT22;20011;51.510;9.942;2023-06-04T13:33:50;16.90;67.50
33673;DHT22;20011;51.510;9.942;2023-06-04T13:36:16;16.90;68.10
33673;DHT22;20011;51.510;9.942;2023-06-04T13:38:44;17.10;66.80
33673;DHT22;20011;51.510;9.942;2023-06-04T13:41:11;17.20;66.60
33673;DHT22;20011;51.510;9.942;2023-06-04T13:43:38;17.30;65.70
33673;DHT22;20011;51.510;9.942;2023-06-04T13:46:05;17.40;64.70
33673;DHT22;20011;51.510;9.942;2023-06-04T13:48:32;17.50;64.40
33673;DHT22;20011;51.510;9.942;2023-06-04T13:50:59;17.60;64.80
33673;DHT22;20011;51.510;9.942;2023-06-04T13:53:26;17.70;65.60
33673;DHT22;20011;51.510;9.942;2023-06-04T13:55:53;17.70;64.20
33673;DHT22;20011;51.510;9.942;2023-06-04T13:58:25;17.80;63.70
33673;DHT22;20011;51.510;9.942;2023-06-04T14:00:53;17.70;63.80
33673;DHT22;20011;51.510;9.942;2023-06-04T14:03:20;17.60;68.30
33673;DHT22;20011;51.510;9.942;2023-06-04T14:05:47;17.70;65.60
33673;DHT22;20011;51.510;9.942;2023-06-04T14:08:14;17.60;65.80
33673;DHT22;20011;51.510;9.942;2023-06-04T14:10:41;17.60;67.00
33673;DHT22;20011;51.510;9.942;2023-06-04T14:13:09;17.50;68.40
33673;DHT22;20011;51.510;9.942;2023-06-04T14:15:37;17.50;66.80
33673;DHT22;20011;51.510;9.942;2023-06-04T14:18:04;17.40;65.60
33673;DHT22;20011;51.510;9.942;2023-06-04T14:20:31;17.50;65.10
33673;DHT22;20011;51.510;9.942;2023-06-04T14:22:58;17.40;65.30
33673;DHT22;20011;51.510;9.942;2023-06-04T14:25:26;17.40;65.80
33673;DHT22;20011;51.510;9.942;2023-06-04T14:27:54;17.30;65.90
33673;DHT22;20011;51.510;9.942;2023-06-04T14:30:21;17.30;68.90
33673;DHT22;20011;51.510;9.942;2023-06-04T14:32:48;17.30;68.70
33673;DHT22;20011;51.510;9.942;2023-06-04T14:35:15;17.20;68.50
33673;DHT22;20011;51.510;9.942;2023-06-04T14:37:42;17.10;69.10
33673;DHT22;20011;51.510;9.942;2023-06-04T14:40:09;17.10;70.10
33673;DHT22;20011;51.510;9.942;2023-06-04T14:42:37;17.00;71.10
33673;DHT22;20011;51.510;9.942;2023-06-04T14:45:04;17.00;71.50
33673;DHT22;20011;51.510;9.942;2023-06-04T14:47:31;17.00;72.40
33673;DHT22;20011;51.510;9.942;2023-06-04T14:49:58;17.00;73.20
33673;DHT22;20011;51.510;9.942;2023-06-04T14:52:25;16.90;73.30
33673;DHT22;20011;51.510;9.942;2023-06-04T14:54:52;17.00;72.40
33673;DHT22;20011;51.510;9.942;2023-06-04T14:57:21;17.00;71.80
33673;DHT22;20011;51.510;9.942;2023-06-04T14:59:48;17.00;74.10
33673;DHT22;20011;51.510;9.942;2023-06-04T15:02:15;17.00;73.00
33673;DHT22;20011;51.510;9.942;2023-06-04T15:04:46;17.00;71.50
33673;DHT22;20011;51.510;9.942;2023-06-04T15:07:13;17.00;71.10
33673;DHT22;20011;51.510;9.942;2023-06-04T15:09:40;17.00;70.60
33673;DHT22;20011;51.510;9.942;2023-06-04T15:12:07;16.90;70.70
33673;DHT22;20011;51.510;9.942;2023-06-04T15:14:35;16.90;70.70
33673;DHT22;20011;51.510;9.942;2023-06-04T15:17:02;16.90;71.00
33673;DHT22;20011;51.510;9.942;2023-06-04T15:19:29;16.90;75.50
33673;DHT22;20011;51.510;9.942;2023-06-04T15:21:56;16.90;74.60
33673;DHT22;20011;51.510;9.942;2023-06-04T15:24:23;16.90;72.70
33673;DHT22;20011;51.510;9.942;2023-06-04T15:26:50;16.90;72.10
33673;DHT22;20011;51.510;9.942;2023-06-04T15:29:17;16.90;72.20
33673;DHT22;20011;51.510;9.942;2023-06-04T15:31:44;16.90;71.90
33673;DHT22;20011;51.510;9.942;2023-06-04T15:34:13;16.90;72.30
33673;DHT22;20011;51.510;9.942;2023-06-04T15:36:40;16.90;71.80
33673;DHT22;20011;51.510;9.942;2023-06-04T15:39:06;16.90;71.10
33673;DHT22;20011;51.510;9.942;2023-06-04T15:41:33;16.90;74.60
33673;DHT22;20011;51.510;9.942;2023-06-04T15:44:01;16.90;77.10
33673;DHT22;20011;51.510;9.942;2023-06-04T15:46:29;16.90;76.90